createdAt,value
2023-03-05T00:01:35.476Z,99.90
2023-03-05T00:04:05.381Z,99.90
2023-03-05T00:06:33.705Z,99.90
2023-03-05T00:09:01.020Z,99.90
2023-03-05T00:11:30.463Z,99.90
2023-03-05T00:13:59.195Z,99.90
2023-03-05T00:16:28.323Z,99.90
2023-03-05T00:19:00.564Z,99.90
2023-03-05T00:21:34.006Z,99.90
2023-03-05T00:24:05.228Z,99.90
2023-03-05T00:26:34.637Z,99.90
2023-03-05T00:29:01.936Z,99.90
2023-03-05T00:31:31.939Z,99.90
2023-03-05T00:34:04.595Z,99.90
2023-03-05T00:36:32.927Z,99.90
2023-03-05T00:39:01.177Z,99.90
2023-03-05T00:41:28.317Z,99.90
2023-03-05T00:43:55.997Z,99.90
2023-03-05T00:46:24.402Z,99.90
2023-03-05T00:48:51.561Z,99.90
2023-03-05T00:51:18.823Z,99.90
2023-03-05T00:53:46.145Z,99.90
2023-03-05T00:56:13.507Z,99.90
2023-03-05T00:58:40.661Z,99.90
2023-03-05T01:01:07.759Z,99.90
2023-03-05T01:03:36.078Z,99.90
2023-03-05T01:06:10.902Z,99.90
2023-03-05T01:08:39.534Z,99.90
2023-03-05T01:11:07.731Z,99.90
2023-03-05T01:13:35.589Z,99.90
2023-03-05T01:16:04.566Z,99.90
2023-03-05T01:18:31.879Z,99.90
2023-03-05T01:20:59.076Z,99.90
2023-03-05T01:23:26.265Z,99.90
2023-03-05T01:25:59.212Z,99.90
2023-03-05T01:28:28.116Z,99.90
2023-03-05T01:30:55.384Z,99.90
2023-03-05T01:33:22.754Z,99.90
2023-03-05T01:35:50.977Z,99.90
2023-03-05T01:38:19.065Z,99.90
2023-03-05T01:40:46.155Z,99.90
2023-03-05T01:43:13.158Z,99.90
2023-03-05T01:46:18.219Z,99.90
2023-03-05T01:48:52.903Z,99.90
2023-03-05T01:51:24.098Z,99.90
2023-03-05T01:53:52.100Z,99.90
2023-03-05T01:56:19.545Z,99.90
2023-03-05T01:58:47.047Z,99.90
2023-03-05T02:01:14.436Z,99.90
2023-03-05T02:03:42.903Z,99.90
2023-03-05T02:06:10.390Z,99.90
2023-03-05T02:08:37.582Z,99.90
2023-03-05T02:11:05.389Z,99.90
2023-03-05T02:13:38.681Z,99.90
2023-03-05T02:16:07.271Z,99.90
2023-03-05T02:18:34.970Z,99.90
2023-03-05T02:21:07.436Z,99.90
2023-03-05T02:23:37.782Z,99.90
2023-03-05T02:26:11.055Z,99.90
2023-03-05T02:28:44.504Z,99.90
2023-03-05T02:31:22.142Z,99.90
2023-03-05T02:33:50.390Z,99.90
2023-03-05T02:36:19.007Z,99.90
2023-03-05T02:38:47.295Z,99.90
2023-03-05T02:41:16.324Z,99.90
2023-03-05T02:43:44.217Z,99.90
2023-03-05T02:46:12.057Z,99.90
2023-03-05T02:48:39.539Z,99.90
2023-03-05T02:51:08.379Z,99.90
2023-03-05T02:53:35.840Z,99.90
2023-03-05T02:56:04.441Z,99.90
2023-03-05T02:58:34.251Z,99.90
2023-03-05T03:01:01.473Z,99.90
2023-03-05T03:03:28.594Z,99.90
2023-03-05T03:05:55.792Z,99.90
2023-03-05T03:08:22.942Z,99.90
2023-03-05T03:10:50.110Z,99.90
2023-03-05T03:13:17.180Z,99.90
2023-03-05T03:15:44.407Z,99.90
2023-03-05T03:18:11.686Z,99.90
2023-03-05T03:20:39.844Z,99.90
2023-03-05T03:23:08.431Z,99.90
2023-03-05T03:25:35.509Z,99.90
2023-03-05T03:28:03.000Z,99.90
2023-03-05T03:30:30.237Z,99.90
2023-03-05T03:32:58.117Z,99.90
2023-03-05T03:35:25.377Z,99.90
2023-03-05T03:37:52.543Z,99.90
2023-03-05T03:40:19.845Z,99.90
2023-03-05T03:42:46.971Z,99.90
2023-03-05T03:45:14.633Z,99.90
2023-03-05T03:47:41.740Z,99.90
2023-03-05T03:50:10.077Z,99.90
2023-03-05T03:52:37.178Z,99.90
2023-03-05T03:55:04.620Z,99.90
2023-03-05T03:57:33.440Z,99.90
2023-03-05T04:00:01.097Z,99.90
2023-03-05T04:02:28.225Z,99.90
2023-03-05T04:04:55.301Z,99.90
2023-03-05T04:07:22.907Z,99.90
2023-03-05T04:09:50.196Z,99.90
2023-03-05T04:12:18.449Z,99.90
2023-03-05T04:14:49.608Z,99.90
2023-03-05T04:17:17.172Z,99.90
2023-03-05T04:19:44.302Z,99.90
2023-03-05T04:22:14.981Z,99.90
2023-03-05T04:24:42.920Z,99.90
2023-03-05T04:27:11.292Z,99.90
2023-03-05T04:29:39.328Z,99.90
2023-03-05T04:32:07.503Z,99.90
2023-03-05T04:34:35.245Z,99.90
2023-03-05T04:37:02.830Z,99.90
2023-03-05T04:39:31.531Z,99.90
2023-03-05T04:41:58.667Z,99.90
2023-03-05T04:44:26.153Z,99.90
2023-03-05T04:46:53.301Z,99.90
2023-03-05T04:49:20.431Z,99.90
2023-03-05T04:51:47.603Z,99.90
2023-03-05T04:54:14.785Z,99.90
2023-03-05T04:56:41.865Z,99.90
2023-03-05T04:59:09.023Z,99.90
2023-03-05T05:01:36.145Z,99.90
2023-03-05T05:04:03.365Z,99.90
2023-03-05T05:06:30.796Z,99.90
2023-03-05T05:08:58.890Z,99.90
2023-03-05T05:11:26.162Z,99.90
2023-03-05T05:13:53.561Z,99.90
2023-03-05T05:16:20.849Z,99.90
2023-03-05T05:18:47.968Z,99.90
2023-03-05T05:21:15.729Z,99.90
2023-03-05T05:23:42.810Z,99.90
2023-03-05T05:26:15.301Z,99.90
2023-03-05T05:28:44.104Z,99.90
2023-03-05T05:31:15.009Z,99.90
2023-03-05T05:33:43.153Z,99.90
2023-03-05T05:36:14.931Z,99.90
2023-03-05T05:38:43.060Z,99.90
2023-03-05T05:41:14.658Z,99.90
2023-03-05T05:43:42.609Z,99.90
2023-03-05T05:46:15.612Z,99.90
2023-03-05T05:48:44.332Z,99.90
2023-03-05T05:51:16.444Z,99.90
2023-03-05T05:53:44.295Z,99.90
2023-03-05T05:56:13.604Z,99.90
2023-03-05T05:58:41.784Z,99.90
2023-03-05T06:01:28.262Z,99.90
2023-03-05T06:03:56.853Z,99.90
2023-03-05T06:06:25.744Z,99.90
2023-03-05T06:08:54.349Z,99.90
2023-03-05T06:11:22.702Z,99.90
2023-03-05T06:13:50.636Z,99.90
2023-03-05T06:16:23.849Z,99.90
2023-03-05T06:18:52.654Z,99.90
2023-03-05T06:21:22.477Z,99.90
2023-03-05T06:23:51.119Z,99.70
2023-03-05T06:26:22.463Z,99.70
2023-03-05T06:28:49.625Z,99.60
2023-03-05T06:31:26.075Z,99.80
2023-03-05T06:33:57.648Z,99.40
2023-03-05T06:36:25.997Z,99.60
2023-03-05T06:38:54.190Z,99.50
2023-03-05T06:41:31.132Z,99.90
2023-03-05T06:44:02.487Z,99.40
2023-03-05T06:46:37.488Z,99.40
2023-03-05T06:49:05.382Z,99.40
2023-03-05T06:51:36.159Z,99.50
2023-03-05T06:54:08.252Z,99.70
2023-03-05T06:56:38.468Z,99.40
2023-03-05T06:59:06.872Z,99.80
2023-03-05T07:01:34.508Z,99.60
2023-03-05T07:04:03.110Z,99.60
2023-03-05T07:06:33.605Z,99.60
2023-03-05T07:09:01.544Z,99.50
2023-03-05T07:11:29.514Z,99.40
2023-03-05T07:13:56.851Z,99.50
2023-03-05T07:16:30.855Z,99.60
2023-03-05T07:19:00.447Z,99.50
2023-03-05T07:21:31.816Z,99.40
2023-03-05T07:24:01.701Z,99.50
2023-03-05T07:26:30.898Z,99.70
2023-03-05T07:28:58.154Z,99.70
2023-03-05T07:31:30.835Z,99.90
2023-03-05T07:34:00.741Z,99.90
2023-03-05T07:36:28.435Z,99.70
2023-03-05T07:38:55.725Z,99.70
2023-03-05T07:41:23.785Z,99.70
2023-03-05T07:43:53.862Z,99.70
2023-03-05T07:46:27.565Z,99.70
2023-03-05T07:48:55.873Z,99.70
2023-03-05T07:51:25.623Z,99.80
2023-03-05T07:53:55.735Z,99.80
2023-03-05T07:56:28.988Z,99.60
2023-03-05T07:58:56.154Z,99.70
2023-03-05T08:01:23.567Z,99.60
2023-03-05T08:03:50.828Z,99.50
2023-03-05T08:06:18.078Z,99.60
2023-03-05T08:08:45.277Z,99.80
2023-03-05T08:11:15.851Z,99.60
2023-03-05T08:13:45.245Z,99.50
2023-03-05T08:16:20.045Z,99.20
2023-03-05T08:18:48.161Z,99.30
2023-03-05T08:21:22.606Z,99.30
2023-03-05T08:23:50.148Z,99.30
2023-03-05T08:26:21.389Z,99.40
2023-03-05T08:28:48.948Z,99.20
2023-03-05T08:31:19.168Z,99.30
2023-03-05T08:33:46.292Z,99.30
2023-03-05T08:36:13.451Z,99.20
2023-03-05T08:38:40.781Z,99.50
2023-03-05T08:41:08.368Z,99.30
2023-03-05T08:43:35.512Z,99.60
2023-03-05T08:46:03.882Z,99.40
2023-03-05T08:48:32.257Z,99.70
2023-03-05T08:51:13.461Z,99.60
2023-03-05T08:53:41.434Z,99.40
2023-03-05T08:56:09.395Z,98.90
2023-03-05T08:58:37.197Z,98.50
2023-03-05T09:01:05.103Z,98.70
2023-03-05T09:03:32.456Z,98.80
2023-03-05T09:06:06.938Z,98.80
2023-03-05T09:08:35.093Z,98.70
2023-03-05T09:11:04.509Z,98.70
2023-03-05T09:13:32.656Z,98.80
2023-03-05T09:16:05.009Z,98.80
2023-03-05T09:18:32.671Z,99.00
2023-03-05T09:21:04.604Z,98.90
2023-03-05T09:23:31.791Z,99.00
2023-03-05T09:25:59.131Z,98.80
2023-03-05T09:28:26.220Z,98.90
2023-03-05T09:30:53.310Z,99.10
2023-03-05T09:33:20.373Z,99.20
2023-03-05T09:35:48.833Z,99.20
2023-03-05T09:38:16.108Z,99.20
2023-03-05T09:40:48.820Z,99.40
2023-03-05T09:43:36.539Z,99.50
2023-03-05T09:46:26.197Z,99.30
2023-03-05T09:49:18.015Z,99.00
2023-03-05T09:51:51.478Z,98.90
2023-03-05T09:54:39.988Z,99.30
2023-03-05T09:57:18.482Z,98.70
2023-03-05T09:59:54.239Z,98.90
2023-03-05T10:02:29.661Z,98.30
2023-03-05T10:05:45.563Z,98.40
2023-03-05T10:08:16.575Z,98.10
2023-03-05T10:10:52.635Z,98.10
2023-03-05T10:13:25.966Z,98.60
2023-03-05T10:16:24.151Z,98.90
2023-03-05T10:19:21.553Z,99.20
2023-03-05T10:22:01.173Z,99.20
2023-03-05T10:25:00.276Z,99.20
2023-03-05T10:27:44.428Z,98.80
2023-03-05T10:30:26.487Z,98.90
2023-03-05T10:33:18.630Z,97.20
2023-03-05T10:36:17.002Z,97.90
2023-03-05T10:39:12.662Z,98.50
2023-03-05T10:42:20.406Z,98.30
2023-03-05T10:45:14.262Z,98.30
2023-03-05T10:48:36.928Z,98.30
2023-03-05T10:51:35.150Z,98.00
2023-03-05T10:54:11.559Z,98.20
2023-03-05T10:56:38.731Z,96.70
2023-03-05T10:59:05.895Z,96.20
2023-03-05T11:01:33.221Z,96.20
2023-03-05T11:04:06.351Z,96.10
2023-03-05T11:06:36.495Z,95.50
2023-03-05T11:09:29.812Z,95.60
2023-03-05T11:12:14.165Z,95.50
2023-03-05T11:14:46.650Z,95.40
2023-03-05T11:17:34.884Z,95.50
2023-03-05T11:20:32.746Z,95.60
2023-03-05T11:23:26.379Z,95.00
2023-03-05T11:26:01.411Z,95.30
2023-03-05T11:28:39.606Z,95.40
2023-03-05T11:31:07.801Z,95.70
2023-03-05T11:33:37.458Z,95.70
2023-03-05T11:36:57.036Z,95.70
2023-03-05T11:39:26.214Z,96.00
2023-03-05T11:42:01.380Z,96.00
2023-03-05T11:44:30.266Z,96.30
2023-03-05T11:47:38.921Z,96.00
2023-03-05T11:50:31.286Z,96.30
2023-03-05T11:53:11.301Z,96.20
2023-03-05T11:55:45.183Z,96.40
2023-03-05T11:59:07.213Z,96.50
2023-03-05T12:01:51.346Z,96.80
2023-03-05T12:04:21.391Z,97.00
2023-03-05T12:06:57.962Z,96.70
2023-03-05T12:09:43.086Z,96.60
2023-03-05T12:12:42.007Z,96.80
2023-03-05T12:15:12.160Z,96.90
2023-03-05T12:17:59.231Z,96.80
2023-03-05T12:20:44.371Z,96.60
2023-03-05T12:23:21.314Z,96.60
2023-03-05T12:25:52.977Z,96.70
2023-03-05T12:28:32.285Z,96.20
2023-03-05T12:31:06.149Z,95.70
2023-03-05T12:33:42.068Z,95.80
2023-03-05T12:36:21.132Z,96.00
2023-03-05T12:38:52.013Z,95.60
2023-03-05T12:41:27.601Z,95.00
2023-03-05T12:44:07.525Z,95.30
2023-03-05T12:46:46.741Z,95.40
2023-03-05T12:49:23.509Z,95.30
2023-03-05T12:51:57.020Z,94.80
2023-03-05T12:54:41.918Z,95.10
2023-03-05T12:57:29.472Z,95.20
2023-03-05T13:00:15.418Z,95.40
2023-03-05T13:02:46.403Z,95.50
2023-03-05T13:05:37.750Z,95.60
2023-03-05T13:08:31.669Z,95.40
2023-03-05T13:11:08.231Z,95.50
2023-03-05T13:13:45.131Z,95.40
2023-03-05T13:16:24.516Z,95.40
2023-03-05T13:18:54.409Z,95.60
2023-03-05T13:21:29.062Z,95.70
2023-03-05T13:24:02.142Z,96.10
2023-03-05T13:26:41.079Z,95.90
2023-03-05T13:29:23.916Z,96.00
2023-03-05T13:32:00.981Z,95.90
2023-03-05T13:34:47.210Z,96.00
2023-03-05T13:37:26.851Z,96.30
2023-03-05T13:40:24.701Z,96.20
2023-03-05T13:42:56.819Z,96.00
2023-03-05T13:45:30.067Z,96.00
2023-03-05T13:48:04.411Z,96.20
2023-03-05T13:50:34.462Z,96.10
2023-03-05T13:53:31.861Z,96.30
2023-03-05T13:56:06.157Z,96.40
2023-03-05T13:58:56.639Z,96.40
2023-03-05T14:01:44.539Z,96.40
2023-03-05T14:04:14.584Z,96.50
2023-03-05T14:06:51.185Z,96.60
2023-03-05T14:09:37.098Z,96.50
2023-03-05T14:12:07.516Z,96.60
2023-03-05T14:14:38.972Z,96.70
2023-03-05T14:17:27.925Z,96.90
2023-03-05T14:20:13.575Z,96.90
2023-03-05T14:22:45.367Z,97.20
2023-03-05T14:25:39.590Z,97.30
2023-03-05T14:28:29.233Z,97.60
2023-03-05T14:30:57.468Z,97.70
2023-03-05T14:33:30.534Z,97.80
2023-03-05T14:36:00.773Z,98.10
2023-03-05T14:38:33.604Z,98.40
2023-03-05T14:41:40.694Z,98.60
2023-03-05T14:44:18.702Z,98.50
2023-03-05T14:46:50.162Z,98.70
2023-03-05T14:49:17.844Z,99.00
2023-03-05T14:51:47.213Z,98.90
2023-03-05T14:54:24.979Z,99.00
2023-03-05T14:56:52.909Z,99.00
2023-03-05T14:59:21.708Z,99.10
2023-03-05T15:01:50.870Z,99.10
2023-03-05T15:04:19.861Z,99.40
2023-03-05T15:06:50.903Z,99.20
2023-03-05T15:09:20.503Z,99.30
2023-03-05T15:11:48.563Z,99.30
2023-03-05T15:14:15.699Z,99.30
2023-03-05T15:16:45.875Z,99.30
2023-03-05T15:19:13.939Z,99.20
2023-03-05T15:21:41.537Z,99.30
2023-03-05T15:24:11.269Z,99.20
2023-03-05T15:26:38.800Z,99.20
2023-03-05T15:29:05.974Z,99.10
2023-03-05T15:31:38.647Z,99.20
2023-03-05T15:34:07.233Z,99.20
2023-03-05T15:36:34.329Z,99.20
2023-03-05T15:39:01.521Z,99.30
2023-03-05T15:41:28.655Z,99.30
2023-03-05T15:43:55.814Z,99.50
2023-03-05T15:46:23.095Z,99.70
2023-03-05T15:48:50.334Z,99.80
2023-03-05T15:51:18.393Z,99.90
2023-03-05T15:53:46.429Z,99.90
2023-03-05T15:56:20.573Z,99.90
2023-03-05T15:58:53.159Z,99.90
2023-03-05T16:01:21.011Z,99.90
2023-03-05T16:03:48.483Z,99.90
2023-03-05T16:06:22.388Z,99.90
2023-03-05T16:08:55.825Z,99.90
2023-03-05T16:11:23.152Z,99.90
2023-03-05T16:13:50.589Z,99.90
2023-03-05T16:16:19.076Z,99.90
2023-03-05T16:18:48.138Z,99.90
2023-03-05T16:21:15.439Z,99.90
2023-03-05T16:23:42.686Z,99.90
2023-03-05T16:26:10.660Z,99.90
2023-03-05T16:28:38.065Z,99.90
2023-03-05T16:31:05.604Z,99.90
2023-03-05T16:33:32.797Z,99.90
2023-03-05T16:36:38.322Z,99.90
2023-03-05T16:39:05.839Z,99.90
2023-03-05T16:41:33.526Z,99.90
2023-03-05T16:44:00.755Z,99.90
2023-03-05T16:46:31.967Z,99.90
2023-03-05T16:49:00.010Z,99.90
2023-03-05T16:51:27.745Z,99.90
2023-03-05T16:53:55.857Z,99.90
2023-03-05T16:56:23.548Z,99.90
2023-03-05T16:58:53.363Z,99.90
2023-03-05T17:01:22.294Z,99.90
2023-03-05T17:03:51.210Z,99.90
2023-03-05T17:06:28.423Z,99.90
2023-03-05T17:08:56.337Z,99.90
2023-03-05T17:11:25.714Z,99.90
2023-03-05T17:13:52.955Z,99.90
2023-03-05T17:16:21.096Z,99.90
2023-03-05T17:18:49.139Z,99.90
2023-03-05T17:21:17.084Z,99.90
2023-03-05T17:23:44.578Z,99.90
2023-03-05T17:26:17.636Z,99.90
2023-03-05T17:28:45.556Z,99.90
2023-03-05T17:31:14.403Z,99.90
2023-03-05T17:33:42.224Z,99.90
2023-03-05T17:36:19.944Z,99.90
2023-03-05T17:38:48.061Z,99.90
2023-03-05T17:41:17.603Z,99.90
2023-03-05T17:43:45.095Z,99.90
2023-03-05T17:46:12.839Z,99.90
2023-03-05T17:48:40.386Z,99.90
2023-03-05T17:51:11.622Z,99.90
2023-03-05T17:53:40.249Z,99.90
2023-03-05T17:56:13.316Z,99.90
2023-03-05T17:58:40.976Z,99.90
2023-03-05T18:01:09.236Z,99.90
2023-03-05T18:03:37.208Z,99.90
2023-03-05T18:06:05.087Z,99.90
2023-03-05T18:08:32.707Z,99.90
2023-03-05T18:10:59.881Z,99.90
2023-03-05T18:13:27.050Z,99.90
2023-03-05T18:15:57.396Z,99.90
2023-03-05T18:18:24.498Z,99.90
2023-03-05T18:20:51.831Z,99.90
2023-03-05T18:23:19.114Z,99.90
2023-03-05T18:25:46.313Z,99.90
2023-03-05T18:28:15.823Z,99.90
2023-03-05T18:30:45.945Z,99.90
2023-03-05T18:33:23.901Z,99.90
2023-03-05T18:35:52.807Z,99.90
2023-03-05T18:38:23.980Z,99.90
2023-03-05T18:40:53.350Z,99.90
2023-03-05T18:43:23.207Z,99.90
2023-03-05T18:45:54.077Z,99.90
2023-03-05T18:48:21.878Z,99.90
2023-03-05T18:50:54.343Z,99.90
2023-03-05T18:53:22.773Z,99.90
2023-03-05T18:55:52.486Z,99.90
2023-03-05T18:58:19.890Z,99.90
2023-03-05T19:00:48.056Z,99.90
2023-03-05T19:03:16.375Z,99.90
2023-03-05T19:05:43.573Z,99.90
2023-03-05T19:08:11.473Z,99.90
2023-03-05T19:10:39.058Z,99.90
2023-03-05T19:13:25.353Z,99.90
2023-03-05T19:15:52.676Z,99.90
2023-03-05T19:18:20.819Z,99.90
2023-03-05T19:20:55.953Z,99.90
2023-03-05T19:23:23.430Z,99.90
2023-03-05T19:25:50.584Z,99.90
2023-03-05T19:28:17.709Z,99.90
2023-03-05T19:30:48.409Z,99.90
2023-03-05T19:33:15.474Z,99.90
2023-03-05T19:35:42.706Z,99.90
2023-03-05T19:38:10.025Z,99.90
2023-03-05T19:40:39.791Z,99.90
2023-03-05T19:43:07.282Z,99.90
2023-03-05T19:45:35.139Z,99.90
2023-03-05T19:48:02.944Z,99.90
2023-03-05T19:50:30.045Z,99.90
2023-03-05T19:52:57.199Z,99.90
2023-03-05T19:55:24.316Z,99.90
2023-03-05T19:57:51.418Z,99.90
2023-03-05T20:00:19.453Z,99.90
2023-03-05T20:02:48.606Z,99.90
2023-03-05T20:05:15.817Z,99.90
2023-03-05T20:07:42.948Z,99.90
2023-03-05T20:10:11.234Z,99.90
2023-03-05T20:12:39.255Z,99.90
2023-03-05T20:15:07.057Z,99.90
2023-03-05T20:17:34.200Z,99.90
2023-03-05T20:20:01.282Z,99.90
2023-03-05T20:22:28.385Z,99.90
2023-03-05T20:24:55.518Z,99.90
2023-03-05T20:27:22.606Z,99.90
2023-03-05T20:29:49.696Z,99.90
2023-03-05T20:32:16.811Z,99.90
2023-03-05T20:34:43.900Z,99.90
2023-03-05T20:37:11.066Z,99.90
2023-03-05T20:39:38.143Z,99.90
2023-03-05T20:42:05.286Z,99.90
2023-03-05T20:44:32.500Z,99.90
2023-03-05T20:47:12.619Z,99.90
2023-03-05T20:49:39.695Z,99.90
2023-03-05T20:52:06.808Z,99.90
2023-03-05T20:54:33.935Z,99.90
2023-03-05T20:57:00.991Z,99.90
2023-03-05T20:59:28.105Z,99.90
2023-03-05T21:01:55.255Z,99.90
2023-03-05T21:04:23.087Z,99.90
2023-03-05T21:06:53.288Z,99.90
2023-03-05T21:09:20.536Z,99.90
2023-03-05T21:11:47.754Z,99.90
2023-03-05T21:14:14.842Z,99.90
2023-03-05T21:16:42.101Z,99.90
2023-03-05T21:19:09.261Z,99.90
2023-03-05T21:21:36.326Z,99.90
2023-03-05T21:24:03.636Z,99.90
2023-03-05T21:26:30.841Z,99.90
2023-03-05T21:28:57.945Z,99.90
2023-03-05T21:31:25.089Z,99.90
2023-03-05T21:33:52.323Z,99.90
2023-03-05T21:36:19.516Z,99.90
2023-03-05T21:38:48.351Z,99.90
2023-03-05T21:41:18.141Z,99.90
2023-03-05T21:43:45.408Z,99.90
2023-03-05T21:46:13.110Z,99.90
2023-03-05T21:48:40.553Z,99.90
2023-03-05T21:51:11.528Z,99.90
2023-03-05T21:53:38.859Z,99.90
2023-03-05T21:56:19.134Z,99.90
2023-03-05T21:58:47.184Z,99.90
2023-03-05T22:01:16.453Z,99.90
2023-03-05T22:03:43.692Z,99.90
2023-03-05T22:06:13.782Z,99.90
2023-03-05T22:08:41.211Z,99.90
2023-03-05T22:11:14.750Z,99.90
2023-03-05T22:13:41.959Z,99.90
2023-03-05T22:16:09.961Z,99.90
2023-03-05T22:18:37.482Z,99.90
2023-03-05T22:21:04.982Z,99.90
2023-03-05T22:23:36.708Z,99.90
2023-03-05T22:26:07.381Z,99.90
2023-03-05T22:28:36.270Z,99.90
2023-03-05T22:31:03.513Z,99.90
2023-03-05T22:33:31.465Z,99.90
2023-03-05T22:35:59.042Z,99.90
2023-03-05T22:38:26.692Z,99.90
2023-03-05T22:40:53.897Z,99.90
2023-03-05T22:43:21.789Z,99.90
2023-03-05T22:45:49.045Z,99.90
2023-03-05T22:48:16.176Z,99.90
2023-03-05T22:50:44.399Z,99.90
2023-03-05T22:53:12.663Z,99.90
2023-03-05T22:55:42.247Z,99.90
2023-03-05T22:58:10.200Z,99.90
2023-03-05T23:00:37.896Z,99.90
2023-03-05T23:03:06.469Z,99.90
2023-03-05T23:05:35.276Z,99.90
2023-03-05T23:08:02.429Z,99.90
2023-03-05T23:10:29.880Z,99.90
2023-03-05T23:13:00.068Z,99.90
2023-03-05T23:15:31.852Z,99.90
2023-03-05T23:17:59.806Z,99.90
2023-03-05T23:20:33.702Z,99.90
2023-03-05T23:23:01.589Z,99.90
2023-03-05T23:25:32.958Z,99.90
2023-03-05T23:28:01.498Z,99.90
2023-03-05T23:30:34.724Z,99.90
2023-03-05T23:33:19.896Z,99.90
2023-03-05T23:35:57.242Z,99.90
2023-03-05T23:38:27.288Z,99.90
2023-03-05T23:40:59.105Z,99.90
2023-03-05T23:43:28.559Z,99.90
2023-03-05T23:45:56.995Z,99.90
2023-03-05T23:48:26.342Z,99.90
2023-03-05T23:50:54.040Z,99.90
2023-03-05T23:53:31.199Z,99.90
2023-03-05T23:55:58.568Z,99.90
2023-03-05T23:58:26.292Z,99.90
